sensor_id;sensor_type;location;lat;lon;timestamp;temperature;humidity
35111;DHT22;21290;50.158;8.658;2023-11-19T00:02:13;7.80;99.90
35111;DHT22;21290;50.158;8.658;2023-11-19T00:04:40;7.80;99.90
35111;DHT22;21290;50.158;8.658;2023-11-19T00:07:07;7.80;99.90
35111;DHT22;21290;50.158;8.658;2023-11-19T00:09:37;7.90;99.90
35111;DHT22;21290;50.158;8.658;2023-11-19T00:12:04;7.80;99.90
35111;DHT22;21290;50.158;8.658;2023-11-19T00:14:31;7.90;99.90
35111;DHT22;21290;50.158;8.658;2023-11-19T00:16:58;7.90;99.90
35111;DHT22;21290;50.158;8.658;2023-11-19T00:19:25;7.90;99.90
35111;DHT22;21290;50.158;8.658;2023-11-19T00:21:53;7.90;99.90
35111;DHT22;21290;50.158;8.658;2023-11-19T00:24:19;7.90;99.90
35111;DHT22;21290;50.158;8.658;2023-11-19T00:26:47;7.90;99.90
35111;DHT22;21290;50.158;8.658;2023-11-19T00:29:13;7.90;99.90
35111;DHT22;21290;50.158;8.658;2023-11-19T00:31:40;7.90;99.90
35111;DHT22;21290;50.158;8.658;2023-11-19T00:34:07;7.90;99.90
35111;DHT22;21290;50.158;8.658;2023-11-19T00:36:34;7.90;99.90
35111;DHT22;21290;50.158;8.658;2023-11-19T00:39:00;7.90;99.90
35111;DHT22;21290;50.158;8.658;2023-11-19T00:41:27;7.90;99.90
35111;DHT22;21290;50.158;8.658;2023-11-19T00:43:53;8.00;99.90
35111;DHT22;21290;50.158;8.658;2023-11-19T00:46:20;8.00;99.90
35111;DHT22;21290;50.158;8.658;2023-11-19T00:48:47;8.00;99.90
35111;DHT22;21290;50.158;8.658;2023-11-19T00:51:13;8.00;99.90
35111;DHT22;21290;50.158;8.658;2023-11-19T00:53:40;8.00;99.90
35111;DHT22;21290;50.158;8.658;2023-11-19T00:56:07;8.00;99.90
35111;DHT22;21290;50.158;8.658;2023-11-19T00:58:34;8.00;99.90
35111;DHT22;21290;50.158;8.658;2023-11-19T01:01:01;8.00;99.90
35111;DHT22;21290;50.158;8.658;2023-11-19T01:03:27;8.10;99.90
35111;DHT22;21290;50.158;8.658;2023-11-19T01:05:54;8.00;99.90
35111;DHT22;21290;50.158;8.658;2023-11-19T01:08:21;8.00;99.90
35111;DHT22;21290;50.158;8.658;2023-11-19T01:10:47;8.00;99.90
35111;DHT22;21290;50.158;8.658;2023-11-19T01:13:14;8.00;99.90
35111;DHT22;21290;50.158;8.658;2023-11-19T01:15:41;8.00;99.90
35111;DHT22;21290;50.158;8.658;2023-11-19T01:18:08;8.00;99.90
35111;DHT22;21290;50.158;8.658;2023-11-19T01:20:36;8.00;99.90
35111;DHT22;21290;50.158;8.658;2023-11-19T01:23:03;8.10;99.90
35111;DHT22;21290;50.158;8.658;2023-11-19T01:25:30;8.10;99.90
35111;DHT22;21290;50.158;8.658;2023-11-19T01:27:57;8.10;99.90
35111;DHT22;21290;50.158;8.658;2023-11-19T01:30:25;8.10;99.90
35111;DHT22;21290;50.158;8.658;2023-11-19T01:32:52;8.10;99.90
35111;DHT22;21290;50.158;8.658;2023-11-19T01:35:19;8.10;99.90
35111;DHT22;21290;50.158;8.658;2023-11-19T01:37:45;8.10;99.90
35111;DHT22;21290;50.158;8.658;2023-11-19T01:40:12;8.20;99.90
35111;DHT22;21290;50.158;8.658;2023-11-19T01:42:39;8.20;99.90
35111;DHT22;21290;50.158;8.658;2023-11-19T01:45:07;8.20;99.90
35111;DHT22;21290;50.158;8.658;2023-11-19T01:47:36;8.20;99.90
35111;DHT22;21290;50.158;8.658;2023-11-19T01:50:06;8.20;99.90
35111;DHT22;21290;50.158;8.658;2023-11-19T01:52:34;8.20;99.90
35111;DHT22;21290;50.158;8.658;2023-11-19T01:55:04;8.20;99.90
35111;DHT22;21290;50.158;8.658;2023-11-19T01:57:31;8.20;99.90
35111;DHT22;21290;50.158;8.658;2023-11-19T01:59:58;8.20;99.90
35111;DHT22;21290;50.158;8.658;2023-11-19T02:02:25;8.20;99.90
35111;DHT22;21290;50.158;8.658;2023-11-19T02:04:53;8.20;99.90
35111;DHT22;21290;50.158;8.658;2023-11-19T02:07:20;8.30;99.90
35111;DHT22;21290;50.158;8.658;2023-11-19T02:09:47;8.30;99.90
35111;DHT22;21290;50.158;8.658;2023-11-19T02:12:14;8.30;99.90
35111;DHT22;21290;50.158;8.658;2023-11-19T02:14:41;8.30;99.90
35111;DHT22;21290;50.158;8.658;2023-11-19T02:17:31;8.30;99.90
35111;DHT22;21290;50.158;8.658;2023-11-19T02:19:58;8.30;99.90
35111;DHT22;21290;50.158;8.658;2023-11-19T02:22:25;8.30;99.90
35111;DHT22;21290;50.158;8.658;2023-11-19T02:24:59;8.30;99.90
35111;DHT22;21290;50.158;8.658;2023-11-19T02:30:14;8.40;99.90
35111;DHT22;21290;50.158;8.658;2023-11-19T02:32:42;8.40;99.90
35111;DHT22;21290;50.158;8.658;2023-11-19T02:35:09;8.40;99.90
35111;DHT22;21290;50.158;8.658;2023-11-19T02:37:35;8.40;99.90
35111;DHT22;21290;50.158;8.658;2023-11-19T02:40:02;8.40;99.90
35111;DHT22;21290;50.158;8.658;2023-11-19T02:42:30;8.40;99.90
35111;DHT22;21290;50.158;8.658;2023-11-19T02:44:57;8.50;99.90
35111;DHT22;21290;50.158;8.658;2023-11-19T02:47:24;8.50;99.90
35111;DHT22;21290;50.158;8.658;2023-11-19T02:49:51;8.40;99.90
35111;DHT22;21290;50.158;8.658;2023-11-19T02:52:19;8.50;99.90
35111;DHT22;21290;50.158;8.658;2023-11-19T02:54:46;8.50;99.90
35111;DHT22;21290;50.158;8.658;2023-11-19T02:57:13;8.50;99.90
35111;DHT22;21290;50.158;8.658;2023-11-19T02:59:48;8.50;99.90
35111;DHT22;21290;50.158;8.658;2023-11-19T03:02:15;8.50;99.90
35111;DHT22;21290;50.158;8.658;2023-11-19T03:04:44;8.60;99.90
35111;DHT22;21290;50.158;8.658;2023-11-19T03:07:12;8.50;99.90
35111;DHT22;21290;50.158;8.658;2023-11-19T03:09:40;8.60;99.90
35111;DHT22;21290;50.158;8.658;2023-11-19T03:12:07;8.50;99.90
35111;DHT22;21290;50.158;8.658;2023-11-19T03:14:34;8.60;99.90
35111;DHT22;21290;50.158;8.658;2023-11-19T03:17:01;8.60;99.90
35111;DHT22;21290;50.158;8.658;2023-11-19T03:19:28;8.60;99.90
35111;DHT22;21290;50.158;8.658;2023-11-19T03:21:55;8.60;99.90
35111;DHT22;21290;50.158;8.658;2023-11-19T03:24:22;8.70;99.90
35111;DHT22;21290;50.158;8.658;2023-11-19T03:26:49;8.70;99.90
35111;DHT22;21290;50.158;8.658;2023-11-19T03:29:19;8.70;99.90
35111;DHT22;21290;50.158;8.658;2023-11-19T03:31:45;8.70;99.90
35111;DHT22;21290;50.158;8.658;2023-11-19T03:34:12;8.70;99.90
35111;DHT22;21290;50.158;8.658;2023-11-19T03:36:38;8.70;99.90
35111;DHT22;21290;50.158;8.658;2023-11-19T03:39:06;8.80;99.90
35111;DHT22;21290;50.158;8.658;2023-11-19T03:41:33;8.80;99.90
35111;DHT22;21290;50.158;8.658;2023-11-19T03:44:02;8.80;99.90
35111;DHT22;21290;50.158;8.658;2023-11-19T03:46:29;8.80;99.90
35111;DHT22;21290;50.158;8.658;2023-11-19T03:48:56;8.80;99.90
35111;DHT22;21290;50.158;8.658;2023-11-19T03:51:23;8.90;99.90
35111;DHT22;21290;50.158;8.658;2023-11-19T03:53:50;8.90;99.90
35111;DHT22;21290;50.158;8.658;2023-11-19T03:56:17;8.90;99.90
35111;DHT22;21290;50.158;8.658;2023-11-19T03:58:43;8.80;99.90
35111;DHT22;21290;50.158;8.658;2023-11-19T04:01:13;8.80;99.90
35111;DHT22;21290;50.158;8.658;2023-11-19T04:03:40;8.80;99.90
35111;DHT22;21290;50.158;8.658;2023-11-19T04:06:18;8.80;99.90
35111;DHT22;21290;50.158;8.658;2023-11-19T04:08:44;8.90;99.90
35111;DHT22;21290;50.158;8.658;2023-11-19T04:11:11;8.90;99.90
35111;DHT22;21290;50.158;8.658;2023-11-19T04:13:38;8.90;99.90
35111;DHT22;21290;50.158;8.658;2023-11-19T04:16:05;8.90;99.90
35111;DHT22;21290;50.158;8.658;2023-11-19T04:18:32;8.90;99.90
35111;DHT22;21290;50.158;8.658;2023-11-19T04:20:59;8.90;99.90
35111;DHT22;21290;50.158;8.658;2023-11-19T04:23:25;9.00;99.90
35111;DHT22;21290;50.158;8.658;2023-11-19T04:25:52;9.00;99.90
35111;DHT22;21290;50.158;8.658;2023-11-19T04:28:19;8.90;99.90
35111;DHT22;21290;50.158;8.658;2023-11-19T04:30:45;9.00;99.90
35111;DHT22;21290;50.158;8.658;2023-11-19T04:33:12;9.00;99.90
35111;DHT22;21290;50.158;8.658;2023-11-19T04:35:39;9.00;99.90
35111;DHT22;21290;50.158;8.658;2023-11-19T04:38:05;9.00;99.90
35111;DHT22;21290;50.158;8.658;2023-11-19T04:40:32;9.00;99.90
35111;DHT22;21290;50.158;8.658;2023-11-19T04:43:00;9.00;99.90
35111;DHT22;21290;50.158;8.658;2023-11-19T04:45:27;9.10;99.90
35111;DHT22;21290;50.158;8.658;2023-11-19T04:47:53;9.10;99.90
35111;DHT22;21290;50.158;8.658;2023-11-19T04:50:20;9.20;99.90
35111;DHT22;21290;50.158;8.658;2023-11-19T04:52:47;9.20;99.90
35111;DHT22;21290;50.158;8.658;2023-11-19T04:55:13;9.20;99.90
35111;DHT22;21290;50.158;8.658;2023-11-19T04:57:41;9.20;99.90
35111;DHT22;21290;50.158;8.658;2023-11-19T05:00:08;9.20;99.90
35111;DHT22;21290;50.158;8.658;2023-11-19T05:02:40;9.20;99.90
35111;DHT22;21290;50.158;8.658;2023-11-19T05:05:07;9.30;99.90
35111;DHT22;21290;50.158;8.658;2023-11-19T05:07:35;9.30;99.90
35111;DHT22;21290;50.158;8.658;2023-11-19T05:10:02;9.30;99.90
35111;DHT22;21290;50.158;8.658;2023-11-19T05:12:30;9.30;99.90
35111;DHT22;21290;50.158;8.658;2023-11-19T05:14:57;9.30;99.90
35111;DHT22;21290;50.158;8.658;2023-11-19T05:17:24;9.40;99.90
35111;DHT22;21290;50.158;8.658;2023-11-19T05:19:51;9.40;99.90
35111;DHT22;21290;50.158;8.658;2023-11-19T05:22:18;9.40;99.90
35111;DHT22;21290;50.158;8.658;2023-11-19T05:24:47;9.30;99.90
35111;DHT22;21290;50.158;8.658;2023-11-19T05:27:15;9.40;99.90
35111;DHT22;21290;50.158;8.658;2023-11-19T05:29:41;9.40;99.90
35111;DHT22;21290;50.158;8.658;2023-11-19T05:32:09;9.40;99.90
35111;DHT22;21290;50.158;8.658;2023-11-19T05:34:36;9.40;99.90
35111;DHT22;21290;50.158;8.658;2023-11-19T05:37:03;9.40;99.90
35111;DHT22;21290;50.158;8.658;2023-11-19T05:39:32;9.40;99.90
35111;DHT22;21290;50.158;8.658;2023-11-19T05:41:58;9.40;99.90
35111;DHT22;21290;50.158;8.658;2023-11-19T05:44:25;9.50;99.90
35111;DHT22;21290;50.158;8.658;2023-11-19T05:46:52;9.40;99.90
35111;DHT22;21290;50.158;8.658;2023-11-19T05:49:19;9.50;99.90
35111;DHT22;21290;50.158;8.658;2023-11-19T05:51:45;9.50;99.90
35111;DHT22;21290;50.158;8.658;2023-11-19T05:54:12;9.50;99.90
35111;DHT22;21290;50.158;8.658;2023-11-19T05:56:40;9.50;99.90
35111;DHT22;21290;50.158;8.658;2023-11-19T05:59:06;9.50;99.90
35111;DHT22;21290;50.158;8.658;2023-11-19T06:01:41;9.50;99.90
35111;DHT22;21290;50.158;8.658;2023-11-19T06:04:08;9.50;99.90
35111;DHT22;21290;50.158;8.658;2023-11-19T06:06:36;9.60;99.90
35111;DHT22;21290;50.158;8.658;2023-11-19T06:09:03;9.60;99.90
35111;DHT22;21290;50.158;8.658;2023-11-19T06:11:34;9.60;99.90
35111;DHT22;21290;50.158;8.658;2023-11-19T06:14:02;9.60;99.90
35111;DHT22;21290;50.158;8.658;2023-11-19T06:16:32;9.60;99.90
35111;DHT22;21290;50.158;8.658;2023-11-19T06:18:58;9.60;99.90
35111;DHT22;21290;50.158;8.658;2023-11-19T06:21:26;9.60;99.90
35111;DHT22;21290;50.158;8.658;2023-11-19T06:23:52;9.60;99.90
35111;DHT22;21290;50.158;8.658;2023-11-19T06:26:19;9.60;99.90
35111;DHT22;21290;50.158;8.658;2023-11-19T06:28:48;9.60;99.90
35111;DHT22;21290;50.158;8.658;2023-11-19T06:31:15;9.60;99.90
35111;DHT22;21290;50.158;8.658;2023-11-19T06:33:42;9.70;99.90
35111;DHT22;21290;50.158;8.658;2023-11-19T06:36:09;9.70;99.90
35111;DHT22;21290;50.158;8.658;2023-11-19T06:38:36;9.70;99.90
35111;DHT22;21290;50.158;8.658;2023-11-19T06:41:07;9.70;99.90
35111;DHT22;21290;50.158;8.658;2023-11-19T06:43:33;9.70;99.90
35111;DHT22;21290;50.158;8.658;2023-11-19T06:46:03;9.70;99.90
35111;DHT22;21290;50.158;8.658;2023-11-19T06:48:33;9.70;99.90
35111;DHT22;21290;50.158;8.658;2023-11-19T06:51:00;9.70;99.90
35111;DHT22;21290;50.158;8.658;2023-11-19T06:53:26;9.70;99.90
35111;DHT22;21290;50.158;8.658;2023-11-19T06:55:54;9.70;99.90
35111;DHT22;21290;50.158;8.658;2023-11-19T06:58:21;9.80;99.90
35111;DHT22;21290;50.158;8.658;2023-11-19T07:00:48;9.80;99.90
35111;DHT22;21290;50.158;8.658;2023-11-19T07:03:16;9.80;99.90
35111;DHT22;21290;50.158;8.658;2023-11-19T07:05:43;9.80;99.90
35111;DHT22;21290;50.158;8.658;2023-11-19T07:08:10;9.80;99.90
35111;DHT22;21290;50.158;8.658;2023-11-19T07:10:37;9.80;99.90
35111;DHT22;21290;50.158;8.658;2023-11-19T07:13:05;9.80;99.90
35111;DHT22;21290;50.158;8.658;2023-11-19T07:15:33;9.80;99.90
35111;DHT22;21290;50.158;8.658;2023-11-19T07:17:59;9.90;99.90
35111;DHT22;21290;50.158;8.658;2023-11-19T07:20:29;9.90;99.90
35111;DHT22;21290;50.158;8.658;2023-11-19T07:22:55;9.90;99.90
35111;DHT22;21290;50.158;8.658;2023-11-19T07:25:24;9.90;99.90
35111;DHT22;21290;50.158;8.658;2023-11-19T07:27:51;9.90;99.90
35111;DHT22;21290;50.158;8.658;2023-11-19T07:30:18;10.00;99.90
35111;DHT22;21290;50.158;8.658;2023-11-19T07:32:45;10.00;99.90
35111;DHT22;21290;50.158;8.658;2023-11-19T07:35:12;10.00;99.90
35111;DHT22;21290;50.158;8.658;2023-11-19T07:37:38;10.00;99.90
35111;DHT22;21290;50.158;8.658;2023-11-19T07:40:06;10.00;99.90
35111;DHT22;21290;50.158;8.658;2023-11-19T07:42:33;10.00;99.90
35111;DHT22;21290;50.158;8.658;2023-11-19T07:44:59;10.00;99.90
35111;DHT22;21290;50.158;8.658;2023-11-19T07:47:26;10.00;99.90
35111;DHT22;21290;50.158;8.658;2023-11-19T07:49:54;10.10;99.90
35111;DHT22;21290;50.158;8.658;2023-11-19T07:52:21;10.10;99.90
35111;DHT22;21290;50.158;8.658;2023-11-19T07:54:48;10.10;99.90
35111;DHT22;21290;50.158;8.658;2023-11-19T07:57:15;10.10;99.90
35111;DHT22;21290;50.158;8.658;2023-11-19T07:59:41;10.20;99.90
35111;DHT22;21290;50.158;8.658;2023-11-19T08:02:08;10.20;99.90
35111;DHT22;21290;50.158;8.658;2023-11-19T08:04:35;10.20;99.90
35111;DHT22;21290;50.158;8.658;2023-11-19T08:07:02;10.30;99.90
35111;DHT22;21290;50.158;8.658;2023-11-19T08:09:29;10.30;99.90
35111;DHT22;21290;50.158;8.658;2023-11-19T08:11:55;10.40;99.90
35111;DHT22;21290;50.158;8.658;2023-11-19T08:14:23;10.40;99.90
35111;DHT22;21290;50.158;8.658;2023-11-19T08:16:50;10.40;99.90
35111;DHT22;21290;50.158;8.658;2023-11-19T08:19:17;10.40;99.90
35111;DHT22;21290;50.158;8.658;2023-11-19T08:21:43;10.40;99.90
35111;DHT22;21290;50.158;8.658;2023-11-19T08:24:10;10.40;99.90
35111;DHT22;21290;50.158;8.658;2023-11-19T08:26:37;10.50;99.90
35111;DHT22;21290;50.158;8.658;2023-11-19T08:29:03;10.50;99.90
35111;DHT22;21290;50.158;8.658;2023-11-19T08:31:30;10.60;99.90
35111;DHT22;21290;50.158;8.658;2023-11-19T08:33:57;10.60;99.90
35111;DHT22;21290;50.158;8.658;2023-11-19T08:36:23;10.60;99.90
35111;DHT22;21290;50.158;8.658;2023-11-19T08:38:50;10.60;99.90
35111;DHT22;21290;50.158;8.658;2023-11-19T08:41:18;10.60;99.90
35111;DHT22;21290;50.158;8.658;2023-11-19T08:43:46;10.60;99.90
35111;DHT22;21290;50.158;8.658;2023-11-19T08:46:12;10.60;99.90
35111;DHT22;21290;50.158;8.658;2023-11-19T08:48:40;10.60;99.90
35111;DHT22;21290;50.158;8.658;2023-11-19T08:51:06;10.70;99.90
35111;DHT22;21290;50.158;8.658;2023-11-19T08:53:33;10.70;99.90
35111;DHT22;21290;50.158;8.658;2023-11-19T08:56:00;10.80;99.90
35111;DHT22;21290;50.158;8.658;2023-11-19T08:58:29;10.80;99.90
35111;DHT22;21290;50.158;8.658;2023-11-19T09:00:57;10.80;99.90
35111;DHT22;21290;50.158;8.658;2023-11-19T09:03:24;10.90;99.90
35111;DHT22;21290;50.158;8.658;2023-11-19T09:05:53;11.20;99.90
35111;DHT22;21290;50.158;8.658;2023-11-19T09:08:20;11.40;99.90
35111;DHT22;21290;50.158;8.658;2023-11-19T09:10:46;11.50;99.90
35111;DHT22;21290;50.158;8.658;2023-11-19T09:13:13;11.60;99.90
35111;DHT22;21290;50.158;8.658;2023-11-19T09:15:40;12.40;99.90
35111;DHT22;21290;50.158;8.658;2023-11-19T09:18:08;13.70;99.90
35111;DHT22;21290;50.158;8.658;2023-11-19T09:20:35;15.00;99.90
35111;DHT22;21290;50.158;8.658;2023-11-19T09:23:05;16.20;99.90
35111;DHT22;21290;50.158;8.658;2023-11-19T09:25:36;17.20;99.90
35111;DHT22;21290;50.158;8.658;2023-11-19T09:28:05;18.60;99.90
35111;DHT22;21290;50.158;8.658;2023-11-19T09:30:32;19.70;99.90
35111;DHT22;21290;50.158;8.658;2023-11-19T09:33:00;20.70;99.90
35111;DHT22;21290;50.158;8.658;2023-11-19T09:35:27;21.50;99.90
35111;DHT22;21290;50.158;8.658;2023-11-19T09:37:53;22.40;99.90
35111;DHT22;21290;50.158;8.658;2023-11-19T09:40:20;23.10;99.90
35111;DHT22;21290;50.158;8.658;2023-11-19T09:42:47;23.60;99.90
35111;DHT22;21290;50.158;8.658;2023-11-19T09:45:16;23.90;99.90
35111;DHT22;21290;50.158;8.658;2023-11-19T09:47:44;24.00;99.90
35111;DHT22;21290;50.158;8.658;2023-11-19T09:50:19;25.00;99.90
35111;DHT22;21290;50.158;8.658;2023-11-19T09:52:47;25.30;98.10
35111;DHT22;21290;50.158;8.658;2023-11-19T09:55:14;25.30;97.60
35111;DHT22;21290;50.158;8.658;2023-11-19T09:57:41;24.40;98.10
35111;DHT22;21290;50.158;8.658;2023-11-19T10:00:11;23.90;98.00
35111;DHT22;21290;50.158;8.658;2023-11-19T10:02:40;23.90;98.90
35111;DHT22;21290;50.158;8.658;2023-11-19T10:05:09;23.30;98.70
35111;DHT22;21290;50.158;8.658;2023-11-19T10:07:36;23.50;99.00
35111;DHT22;21290;50.158;8.658;2023-11-19T10:10:04;23.90;98.60
35111;DHT22;21290;50.158;8.658;2023-11-19T10:12:31;24.10;98.80
35111;DHT22;21290;50.158;8.658;2023-11-19T10:14:58;24.60;98.50
35111;DHT22;21290;50.158;8.658;2023-11-19T10:17:29;25.20;96.90
35111;DHT22;21290;50.158;8.658;2023-11-19T10:19:58;25.00;97.10
35111;DHT22;21290;50.158;8.658;2023-11-19T10:22:27;25.20;97.60
35111;DHT22;21290;50.158;8.658;2023-11-19T10:24:54;25.70;96.70
35111;DHT22;21290;50.158;8.658;2023-11-19T10:27:24;25.70;96.30
35111;DHT22;21290;50.158;8.658;2023-11-19T10:29:52;24.80;96.20
35111;DHT22;21290;50.158;8.658;2023-11-19T10:32:18;24.80;96.60
35111;DHT22;21290;50.158;8.658;2023-11-19T10:35:03;24.60;96.30
35111;DHT22;21290;50.158;8.658;2023-11-19T10:37:31;24.60;96.20
35111;DHT22;21290;50.158;8.658;2023-11-19T10:39:59;23.90;96.60
35111;DHT22;21290;50.158;8.658;2023-11-19T10:42:26;24.20;97.60
35111;DHT22;21290;50.158;8.658;2023-11-19T10:44:52;24.70;96.10
35111;DHT22;21290;50.158;8.658;2023-11-19T10:47:19;24.90;96.00
35111;DHT22;21290;50.158;8.658;2023-11-19T10:50:04;25.00;95.70
35111;DHT22;21290;50.158;8.658;2023-11-19T10:52:31;24.60;94.10
35111;DHT22;21290;50.158;8.658;2023-11-19T10:55:00;23.60;94.00
35111;DHT22;21290;50.158;8.658;2023-11-19T10:57:30;22.60;94.00
35111;DHT22;21290;50.158;8.658;2023-11-19T11:00:02;21.20;95.80
35111;DHT22;21290;50.158;8.658;2023-11-19T11:02:35;20.80;96.30
35111;DHT22;21290;50.158;8.658;2023-11-19T11:05:06;20.90;96.30
35111;DHT22;21290;50.158;8.658;2023-11-19T11:07:35;21.10;96.00
35111;DHT22;21290;50.158;8.658;2023-11-19T11:10:07;22.10;95.30
35111;DHT22;21290;50.158;8.658;2023-11-19T11:12:37;22.80;93.40
35111;DHT22;21290;50.158;8.658;2023-11-19T11:15:11;23.40;92.20
35111;DHT22;21290;50.158;8.658;2023-11-19T11:17:43;23.90;92.00
35111;DHT22;21290;50.158;8.658;2023-11-19T11:20:12;24.40;91.30
35111;DHT22;21290;50.158;8.658;2023-11-19T11:22:53;24.60;90.30
35111;DHT22;21290;50.158;8.658;2023-11-19T11:28:24;24.80;87.50
35111;DHT22;21290;50.158;8.658;2023-11-19T11:31:43;25.30;86.50
35111;DHT22;21290;50.158;8.658;2023-11-19T11:34:24;24.80;84.90
35111;DHT22;21290;50.158;8.658;2023-11-19T11:39:35;25.00;86.20
35111;DHT22;21290;50.158;8.658;2023-11-19T11:45:06;23.90;85.20
35111;DHT22;21290;50.158;8.658;2023-11-19T11:50:16;22.20;88.70
35111;DHT22;21290;50.158;8.658;2023-11-19T11:55:35;19.40;91.90
35111;DHT22;21290;50.158;8.658;2023-11-19T11:58:05;18.50;93.30
35111;DHT22;21290;50.158;8.658;2023-11-19T12:00:33;17.80;94.50
35111;DHT22;21290;50.158;8.658;2023-11-19T12:03:06;17.20;95.10
35111;DHT22;21290;50.158;8.658;2023-11-19T12:05:41;17.00;96.80
35111;DHT22;21290;50.158;8.658;2023-11-19T12:08:12;17.00;96.50
35111;DHT22;21290;50.158;8.658;2023-11-19T12:10:45;17.00;97.30
35111;DHT22;21290;50.158;8.658;2023-11-19T12:13:14;16.90;97.00
35111;DHT22;21290;50.158;8.658;2023-11-19T12:18:32;16.70;98.50
35111;DHT22;21290;50.158;8.658;2023-11-19T12:21:00;16.70;98.90
35111;DHT22;21290;50.158;8.658;2023-11-19T12:23:29;16.80;98.40
35111;DHT22;21290;50.158;8.658;2023-11-19T12:25:57;16.70;97.90
35111;DHT22;21290;50.158;8.658;2023-11-19T12:28:24;16.80;98.30
35111;DHT22;21290;50.158;8.658;2023-11-19T12:30:53;16.80;97.40
35111;DHT22;21290;50.158;8.658;2023-11-19T12:33:20;16.80;97.60
35111;DHT22;21290;50.158;8.658;2023-11-19T12:35:48;16.70;97.60
35111;DHT22;21290;50.158;8.658;2023-11-19T12:38:21;16.70;97.60
35111;DHT22;21290;50.158;8.658;2023-11-19T12:41:03;16.60;98.00
35111;DHT22;21290;50.158;8.658;2023-11-19T12:43:30;16.70;98.10
35111;DHT22;21290;50.158;8.658;2023-11-19T12:45:57;16.60;98.40
35111;DHT22;21290;50.158;8.658;2023-11-19T12:48:24;16.60;97.80
35111;DHT22;21290;50.158;8.658;2023-11-19T12:50:52;16.60;97.60
35111;DHT22;21290;50.158;8.658;2023-11-19T12:53:21;16.40;98.10
35111;DHT22;21290;50.158;8.658;2023-11-19T12:55:48;16.40;98.50
35111;DHT22;21290;50.158;8.658;2023-11-19T12:58:31;16.50;98.90
35111;DHT22;21290;50.158;8.658;2023-11-19T13:01:04;16.60;98.40
35111;DHT22;21290;50.158;8.658;2023-11-19T13:03:36;16.50;98.70
35111;DHT22;21290;50.158;8.658;2023-11-19T13:06:11;16.40;99.20
35111;DHT22;21290;50.158;8.658;2023-11-19T13:08:43;16.40;99.00
35111;DHT22;21290;50.158;8.658;2023-11-19T13:11:27;16.50;98.70
35111;DHT22;21290;50.158;8.658;2023-11-19T13:13:56;16.60;98.60
35111;DHT22;21290;50.158;8.658;2023-11-19T13:16:24;16.60;98.90
35111;DHT22;21290;50.158;8.658;2023-11-19T13:18:54;16.60;98.50
35111;DHT22;21290;50.158;8.658;2023-11-19T13:21:22;16.60;98.90
35111;DHT22;21290;50.158;8.658;2023-11-19T13:23:49;16.60;99.30
35111;DHT22;21290;50.158;8.658;2023-11-19T13:26:17;16.70;99.00
35111;DHT22;21290;50.158;8.658;2023-11-19T13:28:44;16.60;98.50
35111;DHT22;21290;50.158;8.658;2023-11-19T13:31:22;16.50;97.80
35111;DHT22;21290;50.158;8.658;2023-11-19T13:33:51;16.30;98.50
35111;DHT22;21290;50.158;8.658;2023-11-19T13:36:18;16.10;99.10
35111;DHT22;21290;50.158;8.658;2023-11-19T13:38:46;16.10;99.90
35111;DHT22;21290;50.158;8.658;2023-11-19T13:41:13;16.10;99.90
35111;DHT22;21290;50.158;8.658;2023-11-19T13:43:40;15.90;99.90
35111;DHT22;21290;50.158;8.658;2023-11-19T13:46:07;15.90;99.90
35111;DHT22;21290;50.158;8.658;2023-11-19T13:48:36;15.90;99.90
35111;DHT22;21290;50.158;8.658;2023-11-19T13:51:04;15.80;99.90
35111;DHT22;21290;50.158;8.658;2023-11-19T13:53:32;15.70;99.90
35111;DHT22;21290;50.158;8.658;2023-11-19T13:56:24;15.50;99.90
35111;DHT22;21290;50.158;8.658;2023-11-19T13:58:59;15.40;99.90
35111;DHT22;21290;50.158;8.658;2023-11-19T14:01:38;15.30;99.90
35111;DHT22;21290;50.158;8.658;2023-11-19T14:04:05;15.30;99.90
35111;DHT22;21290;50.158;8.658;2023-11-19T14:06:32;15.20;99.90
35111;DHT22;21290;50.158;8.658;2023-11-19T14:09:00;15.20;99.90
35111;DHT22;21290;50.158;8.658;2023-11-19T14:11:27;15.20;99.90
35111;DHT22;21290;50.158;8.658;2023-11-19T14:13:54;15.10;99.90
35111;DHT22;21290;50.158;8.658;2023-11-19T14:16:21;15.10;99.90
35111;DHT22;21290;50.158;8.658;2023-11-19T14:18:49;15.10;99.90
35111;DHT22;21290;50.158;8.658;2023-11-19T14:21:16;15.10;99.90
35111;DHT22;21290;50.158;8.658;2023-11-19T14:23:42;15.00;99.90
35111;DHT22;21290;50.158;8.658;2023-11-19T14:26:09;14.90;99.90
35111;DHT22;21290;50.158;8.658;2023-11-19T14:28:36;14.90;99.90
35111;DHT22;21290;50.158;8.658;2023-11-19T14:31:21;14.90;99.90
35111;DHT22;21290;50.158;8.658;2023-11-19T14:33:48;14.80;99.90
35111;DHT22;21290;50.158;8.658;2023-11-19T14:36:15;14.80;99.90
35111;DHT22;21290;50.158;8.658;2023-11-19T14:38:42;14.70;99.90
35111;DHT22;21290;50.158;8.658;2023-11-19T14:41:09;14.60;99.90
35111;DHT22;21290;50.158;8.658;2023-11-19T14:43:36;14.50;99.90
35111;DHT22;21290;50.158;8.658;2023-11-19T14:46:02;14.40;99.90
35111;DHT22;21290;50.158;8.658;2023-11-19T14:48:30;14.40;99.90
35111;DHT22;21290;50.158;8.658;2023-11-19T14:50:56;14.30;99.90
35111;DHT22;21290;50.158;8.658;2023-11-19T14:53:23;14.20;99.90
35111;DHT22;21290;50.158;8.658;2023-11-19T14:55:50;14.10;99.90
35111;DHT22;21290;50.158;8.658;2023-11-19T14:58:16;14.00;99.90
35111;DHT22;21290;50.158;8.658;2023-11-19T15:00:43;14.00;99.90
35111;DHT22;21290;50.158;8.658;2023-11-19T15:03:11;14.00;99.90
35111;DHT22;21290;50.158;8.658;2023-11-19T15:05:38;13.90;99.90
35111;DHT22;21290;50.158;8.658;2023-11-19T15:08:05;13.90;99.90
35111;DHT22;21290;50.158;8.658;2023-11-19T15:10:32;13.80;99.90
35111;DHT22;21290;50.158;8.658;2023-11-19T15:12:59;13.80;99.90
35111;DHT22;21290;50.158;8.658;2023-11-19T15:15:26;13.70;99.90
35111;DHT22;21290;50.158;8.658;2023-11-19T15:17:55;13.70;99.90
35111;DHT22;21290;50.158;8.658;2023-11-19T15:20:22;13.60;99.90
35111;DHT22;21290;50.158;8.658;2023-11-19T15:22:49;13.50;99.90
35111;DHT22;21290;50.158;8.658;2023-11-19T15:25:16;13.50;99.90
35111;DHT22;21290;50.158;8.658;2023-11-19T15:27:43;13.40;99.90
35111;DHT22;21290;50.158;8.658;2023-11-19T15:30:10;13.30;99.90
35111;DHT22;21290;50.158;8.658;2023-11-19T15:32:37;13.30;99.90
35111;DHT22;21290;50.158;8.658;2023-11-19T15:35:06;13.30;99.90
35111;DHT22;21290;50.158;8.658;2023-11-19T15:37:34;13.20;99.90
35111;DHT22;21290;50.158;8.658;2023-11-19T15:40:02;13.20;99.90
35111;DHT22;21290;50.158;8.658;2023-11-19T15:42:31;13.30;99.90
35111;DHT22;21290;50.158;8.658;2023-11-19T15:44:58;13.30;99.90
35111;DHT22;21290;50.158;8.658;2023-11-19T15:47:26;13.30;99.90
35111;DHT22;21290;50.158;8.658;2023-11-19T15:49:52;13.30;99.90
35111;DHT22;21290;50.158;8.658;2023-11-19T15:52:21;13.30;99.90
35111;DHT22;21290;50.158;8.658;2023-11-19T15:54:50;13.30;99.90
35111;DHT22;21290;50.158;8.658;2023-11-19T15:57:17;13.20;99.90
35111;DHT22;21290;50.158;8.658;2023-11-19T15:59:44;13.20;99.90
35111;DHT22;21290;50.158;8.658;2023-11-19T16:02:10;13.20;99.90
35111;DHT22;21290;50.158;8.658;2023-11-19T16:04:38;13.20;99.90